Archival Weather

Chicago O'Hare International

Chicago, Illinois (KORD)

Report from: Friday, March 30, 2012 2:51 AM CDT
Current time: Friday, June 21, 2024 7:26 PM CDT

Current weather – Weather history – Daily summaries
Weather forecast

Temperature6.7°C (44.1°F)
Wind chill4.5°C (40.1°F)
Dew point3.3°C (37.9°F)
Winds 6 kts (3.1 m/s, 6.9 mph) East (90°)
Visibility10 mi. (16.1 km)
Clouds Scattered clouds 6,000 ft. (1,829 m)
Ceiling: Overcast 9,500 ft. (2,896 m)
Altimeter29.88 in.Hg (1012 mB)
PrecipitiationTrace
Precip. events Rain ended 7:11 AM
Relative humidity79 %
Density altitude-843 ft. (-257 m)
Sea-level pressure101.2 kPa (1012 mB, 29.88 in.Hg)
Remarks System requires maintenance
Automated weather observing station with precipitation discriminator
Flight conditions Visual Meteorological Conditions
Raw data2012-03-30 07:51 KORD 300751Z 09006KT 10SM SCT060 OVC095 07/03 A2988 RMK AO2 RAE11 SLP120 P0000 T00670033 $
An error has occurred. This application may no longer respond until reloaded. Reload 🗙